sensor_id;sensor_type;location;lat;lon;timestamp;pressure;altitude;pressure_sealevel;temperature;humidity
46834;BME280;32572;51.640;-2.664;2022-07-23T00:02:08;101580.62;;;26.18;34.17
46834;BME280;32572;51.640;-2.664;2022-07-23T00:04:36;101578.38;;;25.82;34.62
46834;BME280;32572;51.640;-2.664;2022-07-23T00:07:04;101577.20;;;25.79;34.53
46834;BME280;32572;51.640;-2.664;2022-07-23T00:09:32;101575.26;;;25.66;34.65
46834;BME280;32572;51.640;-2.664;2022-07-23T00:12:00;101575.35;;;25.94;34.41
46834;BME280;32572;51.640;-2.664;2022-07-23T00:14:27;101579.34;;;25.49;34.61
46834;BME280;32572;51.640;-2.664;2022-07-23T00:16:54;101580.33;;;25.55;34.87
46834;BME280;32572;51.640;-2.664;2022-07-23T00:19:22;101580.97;;;25.13;35.03
46834;BME280;32572;51.640;-2.664;2022-07-23T00:21:49;101581.68;;;25.19;35.29
46834;BME280;32572;51.640;-2.664;2022-07-23T00:24:17;101582.47;;;24.94;34.98
46834;BME280;32572;51.640;-2.664;2022-07-23T00:26:44;101583.01;;;25.26;34.58
46834;BME280;32572;51.640;-2.664;2022-07-23T00:29:12;101582.71;;;25.70;34.62
46834;BME280;32572;51.640;-2.664;2022-07-23T00:31:40;101581.68;;;25.28;34.81
46834;BME280;32572;51.640;-2.664;2022-07-23T00:34:07;101586.20;;;25.49;34.82
46834;BME280;32572;51.640;-2.664;2022-07-23T00:36:35;101580.72;;;25.62;34.65
46834;BME280;32572;51.640;-2.664;2022-07-23T00:39:08;101580.61;;;25.15;35.20
46834;BME280;32572;51.640;-2.664;2022-07-23T00:41:35;101577.34;;;25.62;34.70
46834;BME280;32572;51.640;-2.664;2022-07-23T00:44:21;101577.23;;;25.23;35.39
46834;BME280;32572;51.640;-2.664;2022-07-23T00:46:50;101577.30;;;25.62;34.58
46834;BME280;32572;51.640;-2.664;2022-07-23T00:49:18;101580.35;;;25.54;34.70
46834;BME280;32572;51.640;-2.664;2022-07-23T00:51:45;101584.49;;;25.07;34.94
46834;BME280;32572;51.640;-2.664;2022-07-23T00:54:13;101580.79;;;25.04;35.28
46834;BME280;32572;51.640;-2.664;2022-07-23T00:56:41;101572.90;;;24.96;35.06
46834;BME280;32572;51.640;-2.664;2022-07-23T00:59:10;101565.76;;;25.44;34.72
46834;BME280;32572;51.640;-2.664;2022-07-23T01:01:38;101566.22;;;24.94;35.30
46834;BME280;32572;51.640;-2.664;2022-07-23T01:04:05;101565.03;;;24.88;35.40
46834;BME280;32572;51.640;-2.664;2022-07-23T01:06:35;101565.10;;;24.76;35.51
46834;BME280;32572;51.640;-2.664;2022-07-23T01:09:04;101566.32;;;24.84;35.41
46834;BME280;32572;51.640;-2.664;2022-07-23T01:11:33;101559.67;;;25.47;34.74
46834;BME280;32572;51.640;-2.664;2022-07-23T01:14:08;101557.76;;;25.20;35.00
46834;BME280;32572;51.640;-2.664;2022-07-23T01:16:36;101555.19;;;25.27;34.95
46834;BME280;32572;51.640;-2.664;2022-07-23T01:19:03;101555.97;;;25.10;35.04
46834;BME280;32572;51.640;-2.664;2022-07-23T01:21:32;101557.90;;;25.04;35.14
46834;BME280;32572;51.640;-2.664;2022-07-23T01:24:01;101559.75;;;24.97;35.24
46834;BME280;32572;51.640;-2.664;2022-07-23T01:26:28;101559.29;;;24.95;35.55
46834;BME280;32572;51.640;-2.664;2022-07-23T01:28:56;101556.68;;;24.46;35.81
46834;BME280;32572;51.640;-2.664;2022-07-23T01:31:23;101557.85;;;24.59;35.62
46834;BME280;32572;51.640;-2.664;2022-07-23T01:33:51;101557.29;;;25.31;35.43
46834;BME280;32572;51.640;-2.664;2022-07-23T01:36:19;101562.69;;;25.01;35.15
46834;BME280;32572;51.640;-2.664;2022-07-23T01:38:47;101565.29;;;24.73;35.42
46834;BME280;32572;51.640;-2.664;2022-07-23T01:41:15;101561.92;;;25.03;35.58
46834;BME280;32572;51.640;-2.664;2022-07-23T01:43:43;101563.01;;;24.61;35.50
46834;BME280;32572;51.640;-2.664;2022-07-23T01:46:10;101563.73;;;24.83;35.53
46834;BME280;32572;51.640;-2.664;2022-07-23T01:48:38;101563.33;;;24.53;35.58
46834;BME280;32572;51.640;-2.664;2022-07-23T01:51:06;101566.40;;;24.11;36.08
46834;BME280;32572;51.640;-2.664;2022-07-23T01:53:33;101566.91;;;24.57;35.49
46834;BME280;32572;51.640;-2.664;2022-07-23T01:56:02;101568.29;;;25.11;35.48
46834;BME280;32572;51.640;-2.664;2022-07-23T01:58:29;101576.22;;;24.84;35.18
46834;BME280;32572;51.640;-2.664;2022-07-23T02:00:57;101583.83;;;25.07;35.28
46834;BME280;32572;51.640;-2.664;2022-07-23T02:03:25;101587.65;;;24.94;35.60
46834;BME280;32572;51.640;-2.664;2022-07-23T02:05:53;101586.17;;;24.56;35.71
46834;BME280;32572;51.640;-2.664;2022-07-23T02:08:21;101586.85;;;24.59;35.71
46834;BME280;32572;51.640;-2.664;2022-07-23T02:10:49;101586.47;;;24.68;35.89
46834;BME280;32572;51.640;-2.664;2022-07-23T02:13:17;101582.50;;;24.32;35.71
46834;BME280;32572;51.640;-2.664;2022-07-23T02:15:45;101577.72;;;24.07;35.96
46834;BME280;32572;51.640;-2.664;2022-07-23T02:18:12;101578.66;;;23.98;36.04
46834;BME280;32572;51.640;-2.664;2022-07-23T02:20:40;101577.27;;;24.77;35.44
46834;BME280;32572;51.640;-2.664;2022-07-23T02:23:08;101575.26;;;24.60;35.59
46834;BME280;32572;51.640;-2.664;2022-07-23T02:25:35;101573.46;;;25.04;35.08
46834;BME280;32572;51.640;-2.664;2022-07-23T02:28:03;101574.32;;;24.70;35.71
46834;BME280;32572;51.640;-2.664;2022-07-23T02:30:37;101576.90;;;24.69;35.47
46834;BME280;32572;51.640;-2.664;2022-07-23T02:33:05;101574.82;;;24.34;35.85
46834;BME280;32572;51.640;-2.664;2022-07-23T02:35:32;101575.01;;;24.22;35.88
46834;BME280;32572;51.640;-2.664;2022-07-23T02:37:59;101579.88;;;24.22;36.27
46834;BME280;32572;51.640;-2.664;2022-07-23T02:40:27;101583.31;;;24.48;36.00
46834;BME280;32572;51.640;-2.664;2022-07-23T02:42:55;101585.00;;;24.20;36.22
46834;BME280;32572;51.640;-2.664;2022-07-23T02:45:22;101586.42;;;24.60;35.74
46834;BME280;32572;51.640;-2.664;2022-07-23T02:47:50;101589.69;;;24.50;35.81
46834;BME280;32572;51.640;-2.664;2022-07-23T02:50:18;101590.49;;;24.31;35.84
46834;BME280;32572;51.640;-2.664;2022-07-23T02:52:45;101587.54;;;24.32;35.78
46834;BME280;32572;51.640;-2.664;2022-07-23T02:55:14;101589.07;;;24.40;35.90
46834;BME280;32572;51.640;-2.664;2022-07-23T02:57:42;101590.98;;;23.91;36.54
46834;BME280;32572;51.640;-2.664;2022-07-23T03:00:10;101593.13;;;24.12;36.48
46834;BME280;32572;51.640;-2.664;2022-07-23T03:02:38;101592.45;;;24.07;36.27
46834;BME280;32572;51.640;-2.664;2022-07-23T03:05:06;101594.11;;;23.91;36.47
46834;BME280;32572;51.640;-2.664;2022-07-23T03:07:34;101593.51;;;24.02;36.35
46834;BME280;32572;51.640;-2.664;2022-07-23T03:10:02;101587.24;;;24.67;35.59
46834;BME280;32572;51.640;-2.664;2022-07-23T03:12:30;101588.15;;;24.58;35.60
46834;BME280;32572;51.640;-2.664;2022-07-23T03:14:58;101594.93;;;24.36;36.14
46834;BME280;32572;51.640;-2.664;2022-07-23T03:17:26;101591.33;;;24.24;36.03
46834;BME280;32572;51.640;-2.664;2022-07-23T03:19:54;101593.81;;;23.90;36.42
46834;BME280;32572;51.640;-2.664;2022-07-23T03:22:21;101590.74;;;23.73;36.29
46834;BME280;32572;51.640;-2.664;2022-07-23T03:24:48;101598.99;;;23.79;36.52
46834;BME280;32572;51.640;-2.664;2022-07-23T03:27:16;101596.84;;;24.03;36.11
46834;BME280;32572;51.640;-2.664;2022-07-23T03:29:44;101594.19;;;23.81;36.52
46834;BME280;32572;51.640;-2.664;2022-07-23T03:32:11;101590.27;;;24.18;36.27
46834;BME280;32572;51.640;-2.664;2022-07-23T03:34:38;101587.37;;;24.04;36.13
46834;BME280;32572;51.640;-2.664;2022-07-23T03:37:06;101591.31;;;23.79;36.43
46834;BME280;32572;51.640;-2.664;2022-07-23T03:39:34;101594.25;;;23.65;36.50
46834;BME280;32572;51.640;-2.664;2022-07-23T03:42:02;101592.35;;;24.07;36.33
46834;BME280;32572;51.640;-2.664;2022-07-23T03:44:30;101592.91;;;23.91;36.26
46834;BME280;32572;51.640;-2.664;2022-07-23T03:46:57;101595.30;;;24.13;36.49
46834;BME280;32572;51.640;-2.664;2022-07-23T03:49:25;101596.27;;;23.71;36.66
46834;BME280;32572;51.640;-2.664;2022-07-23T03:51:53;101596.42;;;23.85;36.44
46834;BME280;32572;51.640;-2.664;2022-07-23T03:54:20;101603.97;;;23.37;36.79
46834;BME280;32572;51.640;-2.664;2022-07-23T03:56:48;101593.03;;;24.03;36.21
46834;BME280;32572;51.640;-2.664;2022-07-23T03:59:15;101593.60;;;23.83;36.17
46834;BME280;32572;51.640;-2.664;2022-07-23T04:01:43;101593.04;;;23.77;36.23
46834;BME280;32572;51.640;-2.664;2022-07-23T04:04:11;101593.59;;;23.72;36.29
46834;BME280;32572;51.640;-2.664;2022-07-23T04:06:39;101597.29;;;23.49;36.54
46834;BME280;32572;51.640;-2.664;2022-07-23T04:09:06;101590.33;;;23.90;36.31
46834;BME280;32572;51.640;-2.664;2022-07-23T04:11:34;101584.20;;;23.64;36.26
46834;BME280;32572;51.640;-2.664;2022-07-23T04:14:02;101582.53;;;23.91;36.23
46834;BME280;32572;51.640;-2.664;2022-07-23T04:16:29;101581.63;;;23.51;36.45
46834;BME280;32572;51.640;-2.664;2022-07-23T04:18:57;101585.07;;;23.83;36.58
46834;BME280;32572;51.640;-2.664;2022-07-23T04:21:25;101589.49;;;24.02;36.11
46834;BME280;32572;51.640;-2.664;2022-07-23T04:23:52;101582.81;;;23.91;36.18
46834;BME280;32572;51.640;-2.664;2022-07-23T04:26:20;101578.28;;;23.44;36.39
46834;BME280;32572;51.640;-2.664;2022-07-23T04:28:48;101584.87;;;23.66;36.52
46834;BME280;32572;51.640;-2.664;2022-07-23T04:31:16;101591.67;;;23.35;36.58
46834;BME280;32572;51.640;-2.664;2022-07-23T04:33:43;101591.00;;;23.78;36.29
46834;BME280;32572;51.640;-2.664;2022-07-23T04:36:15;101591.45;;;23.92;36.01
46834;BME280;32572;51.640;-2.664;2022-07-23T04:38:42;101593.53;;;23.71;36.33
46834;BME280;32572;51.640;-2.664;2022-07-23T04:41:09;101587.15;;;24.06;36.25
46834;BME280;32572;51.640;-2.664;2022-07-23T04:43:37;101585.50;;;23.40;36.41
46834;BME280;32572;51.640;-2.664;2022-07-23T04:46:05;101579.18;;;23.82;36.12
46834;BME280;32572;51.640;-2.664;2022-07-23T04:48:33;101578.24;;;24.27;35.98
46834;BME280;32572;51.640;-2.664;2022-07-23T04:51:01;101580.20;;;23.72;36.30
46834;BME280;32572;51.640;-2.664;2022-07-23T04:53:30;101578.77;;;23.88;36.09
46834;BME280;32572;51.640;-2.664;2022-07-23T04:55:58;101580.67;;;23.60;36.12
46834;BME280;32572;51.640;-2.664;2022-07-23T04:58:26;101580.01;;;23.40;36.39
46834;BME280;32572;51.640;-2.664;2022-07-23T05:00:54;101582.96;;;23.81;36.17
46834;BME280;32572;51.640;-2.664;2022-07-23T05:03:22;101584.62;;;23.45;36.24
46834;BME280;32572;51.640;-2.664;2022-07-23T05:05:55;101586.49;;;23.57;36.15
46834;BME280;32572;51.640;-2.664;2022-07-23T05:08:23;101585.01;;;23.54;36.16
46834;BME280;32572;51.640;-2.664;2022-07-23T05:10:50;101583.72;;;24.18;35.68
46834;BME280;32572;51.640;-2.664;2022-07-23T05:13:18;101583.39;;;23.94;35.68
46834;BME280;32572;51.640;-2.664;2022-07-23T05:15:46;101580.85;;;23.99;35.91
46834;BME280;32572;51.640;-2.664;2022-07-23T05:18:14;101576.55;;;24.26;35.84
46834;BME280;32572;51.640;-2.664;2022-07-23T05:20:41;101573.34;;;23.87;35.90
46834;BME280;32572;51.640;-2.664;2022-07-23T05:23:09;101580.38;;;24.39;35.62
46834;BME280;32572;51.640;-2.664;2022-07-23T05:25:36;101585.86;;;23.92;35.61
46834;BME280;32572;51.640;-2.664;2022-07-23T05:28:05;101583.42;;;24.07;35.70
46834;BME280;32572;51.640;-2.664;2022-07-23T05:30:32;101577.65;;;24.08;35.40
46834;BME280;32572;51.640;-2.664;2022-07-23T05:33:00;101575.55;;;24.23;35.52
46834;BME280;32572;51.640;-2.664;2022-07-23T05:35:27;101572.34;;;24.40;35.03
46834;BME280;32572;51.640;-2.664;2022-07-23T05:37:55;101569.19;;;24.17;35.35
46834;BME280;32572;51.640;-2.664;2022-07-23T05:40:23;101569.87;;;24.18;35.32
46834;BME280;32572;51.640;-2.664;2022-07-23T05:42:50;101569.49;;;24.40;35.34
46834;BME280;32572;51.640;-2.664;2022-07-23T05:45:18;101574.68;;;24.49;35.24
46834;BME280;32572;51.640;-2.664;2022-07-23T05:47:47;101573.68;;;24.49;35.27
46834;BME280;32572;51.640;-2.664;2022-07-23T05:50:16;101579.67;;;24.42;35.28
46834;BME280;32572;51.640;-2.664;2022-07-23T05:52:50;101588.77;;;24.08;35.38
46834;BME280;32572;51.640;-2.664;2022-07-23T05:55:17;101589.67;;;24.24;35.24
46834;BME280;32572;51.640;-2.664;2022-07-23T05:57:45;101595.71;;;24.21;35.24
46834;BME280;32572;51.640;-2.664;2022-07-23T06:00:13;101593.01;;;24.63;35.11
46834;BME280;32572;51.640;-2.664;2022-07-23T06:02:41;101593.69;;;24.63;34.87
46834;BME280;32572;51.640;-2.664;2022-07-23T06:05:09;101586.59;;;24.63;34.80
46834;BME280;32572;51.640;-2.664;2022-07-23T06:07:37;101583.76;;;25.11;34.52
46834;BME280;32572;51.640;-2.664;2022-07-23T06:10:06;101585.40;;;24.84;34.56
46834;BME280;32572;51.640;-2.664;2022-07-23T06:12:34;101582.88;;;24.71;34.71
46834;BME280;32572;51.640;-2.664;2022-07-23T06:15:02;101578.40;;;24.95;34.68
46834;BME280;32572;51.640;-2.664;2022-07-23T06:17:29;101573.33;;;24.87;34.56
46834;BME280;32572;51.640;-2.664;2022-07-23T06:19:56;101566.60;;;25.28;34.29
46834;BME280;32572;51.640;-2.664;2022-07-23T06:22:24;101565.93;;;24.87;34.54
46834;BME280;32572;51.640;-2.664;2022-07-23T06:24:52;101563.03;;;25.01;34.42
46834;BME280;32572;51.640;-2.664;2022-07-23T06:27:19;101567.54;;;25.30;34.12
46834;BME280;32572;51.640;-2.664;2022-07-23T06:29:47;101568.32;;;25.21;34.16
46834;BME280;32572;51.640;-2.664;2022-07-23T06:32:14;101573.99;;;25.37;33.98
46834;BME280;32572;51.640;-2.664;2022-07-23T06:34:41;101571.84;;;25.47;33.84
46834;BME280;32572;51.640;-2.664;2022-07-23T06:37:09;101573.28;;;25.46;33.83
46834;BME280;32572;51.640;-2.664;2022-07-23T06:39:37;101574.39;;;25.67;33.86
46834;BME280;32572;51.640;-2.664;2022-07-23T06:42:04;101581.21;;;25.48;33.87
46834;BME280;32572;51.640;-2.664;2022-07-23T06:44:32;101582.75;;;25.42;33.66
46834;BME280;32572;51.640;-2.664;2022-07-23T06:47:01;101588.38;;;25.95;33.56
46834;BME280;32572;51.640;-2.664;2022-07-23T06:49:29;101590.45;;;25.54;33.56
46834;BME280;32572;51.640;-2.664;2022-07-23T06:51:56;101586.12;;;25.94;33.32
46834;BME280;32572;51.640;-2.664;2022-07-23T06:54:24;101585.07;;;26.03;33.23
46834;BME280;32572;51.640;-2.664;2022-07-23T06:56:52;101585.92;;;26.15;33.10
46834;BME280;32572;51.640;-2.664;2022-07-23T06:59:20;101588.01;;;25.93;33.10
46834;BME280;32572;51.640;-2.664;2022-07-23T07:01:47;101593.64;;;25.93;33.12
46834;BME280;32572;51.640;-2.664;2022-07-23T07:04:14;101594.70;;;26.04;33.24
46834;BME280;32572;51.640;-2.664;2022-07-23T07:06:41;101594.83;;;26.04;33.00
46834;BME280;32572;51.640;-2.664;2022-07-23T07:09:09;101595.30;;;26.24;32.73
46834;BME280;32572;51.640;-2.664;2022-07-23T07:11:36;101596.09;;;25.91;32.85
46834;BME280;32572;51.640;-2.664;2022-07-23T07:14:04;101591.85;;;26.20;32.85
46834;BME280;32572;51.640;-2.664;2022-07-23T07:16:31;101590.72;;;26.12;32.67
46834;BME280;32572;51.640;-2.664;2022-07-23T07:18:58;101588.13;;;26.23;32.57
46834;BME280;32572;51.640;-2.664;2022-07-23T07:21:26;101586.26;;;26.69;32.54
46834;BME280;32572;51.640;-2.664;2022-07-23T07:23:54;101587.03;;;26.15;32.60
46834;BME280;32572;51.640;-2.664;2022-07-23T07:26:21;101589.10;;;26.20;32.54
46834;BME280;32572;51.640;-2.664;2022-07-23T07:28:48;101591.16;;;26.52;32.54
46834;BME280;32572;51.640;-2.664;2022-07-23T07:31:15;101588.18;;;26.24;32.51
46834;BME280;32572;51.640;-2.664;2022-07-23T07:33:43;101585.11;;;26.62;32.43
46834;BME280;32572;51.640;-2.664;2022-07-23T07:36:11;101584.55;;;26.38;32.38
46834;BME280;32572;51.640;-2.664;2022-07-23T07:38:38;101583.03;;;26.49;32.25
46834;BME280;32572;51.640;-2.664;2022-07-23T07:41:05;101577.41;;;26.91;32.13
46834;BME280;32572;51.640;-2.664;2022-07-23T07:43:32;101577.00;;;26.83;31.92
46834;BME280;32572;51.640;-2.664;2022-07-23T07:45:59;101576.78;;;27.08;31.67
46834;BME280;32572;51.640;-2.664;2022-07-23T07:48:26;101578.86;;;27.32;31.38
46834;BME280;32572;51.640;-2.664;2022-07-23T07:50:54;101579.74;;;27.45;31.34
46834;BME280;32572;51.640;-2.664;2022-07-23T07:53:22;101574.30;;;27.52;31.33
46834;BME280;32572;51.640;-2.664;2022-07-23T07:55:50;101571.76;;;27.72;31.13
46834;BME280;32572;51.640;-2.664;2022-07-23T07:58:17;101570.30;;;27.94;30.91
46834;BME280;32572;51.640;-2.664;2022-07-23T08:00:45;101572.08;;;28.30;30.59
46834;BME280;32572;51.640;-2.664;2022-07-23T08:03:17;101577.17;;;28.33;30.36
46834;BME280;32572;51.640;-2.664;2022-07-23T08:05:45;101574.57;;;28.30;30.14
46834;BME280;32572;51.640;-2.664;2022-07-23T08:08:13;101576.04;;;28.35;30.10
46834;BME280;32572;51.640;-2.664;2022-07-23T08:10:41;101572.24;;;28.26;30.23
46834;BME280;32572;51.640;-2.664;2022-07-23T08:13:12;101575.65;;;28.23;30.27
46834;BME280;32572;51.640;-2.664;2022-07-23T08:15:41;101578.87;;;28.17;30.31
46834;BME280;32572;51.640;-2.664;2022-07-23T08:18:09;101585.40;;;28.12;30.39
46834;BME280;32572;51.640;-2.664;2022-07-23T08:20:37;101582.98;;;28.21;30.33
46834;BME280;32572;51.640;-2.664;2022-07-23T08:23:07;101581.81;;;28.51;30.03
46834;BME280;32572;51.640;-2.664;2022-07-23T08:25:36;101585.21;;;28.67;29.86
46834;BME280;32572;51.640;-2.664;2022-07-23T08:28:06;101580.26;;;28.92;29.67
46834;BME280;32572;51.640;-2.664;2022-07-23T08:30:35;101580.73;;;28.95;29.41
46834;BME280;32572;51.640;-2.664;2022-07-23T08:33:05;101582.90;;;29.33;29.29
46834;BME280;32572;51.640;-2.664;2022-07-23T08:35:34;101580.33;;;29.28;29.15
46834;BME280;32572;51.640;-2.664;2022-07-23T08:38:04;101581.36;;;29.53;29.24
46834;BME280;32572;51.640;-2.664;2022-07-23T08:40:32;101579.70;;;29.37;29.21
46834;BME280;32572;51.640;-2.664;2022-07-23T08:43:01;101574.68;;;29.27;29.07
46834;BME280;32572;51.640;-2.664;2022-07-23T08:45:36;101572.39;;;29.76;29.02
46834;BME280;32572;51.640;-2.664;2022-07-23T08:48:07;101573.38;;;29.50;29.14
46834;BME280;32572;51.640;-2.664;2022-07-23T08:50:35;101569.05;;;29.34;29.07
46834;BME280;32572;51.640;-2.664;2022-07-23T08:53:05;101572.42;;;29.45;29.04
46834;BME280;32572;51.640;-2.664;2022-07-23T08:55:33;101572.96;;;29.48;28.95
46834;BME280;32572;51.640;-2.664;2022-07-23T08:58:01;101568.25;;;29.73;28.66
46834;BME280;32572;51.640;-2.664;2022-07-23T09:00:29;101567.68;;;29.83;28.60
46834;BME280;32572;51.640;-2.664;2022-07-23T09:02:57;101569.36;;;30.00;28.39
46834;BME280;32572;51.640;-2.664;2022-07-23T09:05:24;101569.28;;;29.85;28.54
46834;BME280;32572;51.640;-2.664;2022-07-23T09:08:10;101572.14;;;29.72;28.42
46834;BME280;32572;51.640;-2.664;2022-07-23T09:10:48;101572.27;;;29.93;28.23
46834;BME280;32572;51.640;-2.664;2022-07-23T09:13:27;101576.21;;;29.37;28.63
46834;BME280;32572;51.640;-2.664;2022-07-23T09:15:57;101572.40;;;30.00;28.36
46834;BME280;32572;51.640;-2.664;2022-07-23T09:18:30;101575.86;;;29.67;28.45
46834;BME280;32572;51.640;-2.664;2022-07-23T09:21:08;101579.73;;;29.86;28.58
46834;BME280;32572;51.640;-2.664;2022-07-23T09:23:43;101579.08;;;29.82;28.53
46834;BME280;32572;51.640;-2.664;2022-07-23T09:26:23;101577.68;;;29.79;28.55
46834;BME280;32572;51.640;-2.664;2022-07-23T09:28:54;101572.81;;;29.95;28.42
46834;BME280;32572;51.640;-2.664;2022-07-23T09:31:23;101572.08;;;29.74;28.25
46834;BME280;32572;51.640;-2.664;2022-07-23T09:33:51;101569.98;;;29.91;28.59
46834;BME280;32572;51.640;-2.664;2022-07-23T09:36:28;101569.43;;;29.93;28.24
46834;BME280;32572;51.640;-2.664;2022-07-23T09:38:56;101567.40;;;30.12;27.96
46834;BME280;32572;51.640;-2.664;2022-07-23T09:41:23;101570.41;;;29.65;28.30
46834;BME280;32572;51.640;-2.664;2022-07-23T09:43:55;101573.46;;;29.76;28.52
46834;BME280;32572;51.640;-2.664;2022-07-23T09:46:24;101569.00;;;29.71;28.20
46834;BME280;32572;51.640;-2.664;2022-07-23T09:48:52;101571.60;;;30.32;28.15
46834;BME280;32572;51.640;-2.664;2022-07-23T09:51:20;101575.96;;;29.86;28.47
46834;BME280;32572;51.640;-2.664;2022-07-23T09:53:48;101568.32;;;29.57;28.51
46834;BME280;32572;51.640;-2.664;2022-07-23T09:56:16;101565.66;;;29.50;28.27
46834;BME280;32572;51.640;-2.664;2022-07-23T09:58:44;101562.04;;;30.31;27.70
46834;BME280;32572;51.640;-2.664;2022-07-23T10:01:13;101568.12;;;30.45;28.01
46834;BME280;32572;51.640;-2.664;2022-07-23T10:03:42;101565.11;;;29.80;28.32
46834;BME280;32572;51.640;-2.664;2022-07-23T10:06:10;101568.39;;;29.48;28.89
46834;BME280;32572;51.640;-2.664;2022-07-23T10:08:41;101568.17;;;29.49;28.65
46834;BME280;32572;51.640;-2.664;2022-07-23T10:11:10;101571.60;;;30.04;28.05
46834;BME280;32572;51.640;-2.664;2022-07-23T10:13:38;101569.71;;;30.01;28.20
46834;BME280;32572;51.640;-2.664;2022-07-23T10:16:07;101566.72;;;29.43;28.68
46834;BME280;32572;51.640;-2.664;2022-07-23T10:18:35;101561.39;;;30.10;28.20
46834;BME280;32572;51.640;-2.664;2022-07-23T10:21:07;101567.67;;;29.92;28.15
46834;BME280;32572;51.640;-2.664;2022-07-23T10:23:39;101569.85;;;30.33;27.72
46834;BME280;32572;51.640;-2.664;2022-07-23T10:26:15;101569.03;;;30.14;28.06
46834;BME280;32572;51.640;-2.664;2022-07-23T10:28:59;101570.22;;;29.99;28.27
46834;BME280;32572;51.640;-2.664;2022-07-23T10:31:38;101571.05;;;29.85;28.70
46834;BME280;32572;51.640;-2.664;2022-07-23T10:34:17;101568.70;;;29.62;28.71
46834;BME280;32572;51.640;-2.664;2022-07-23T10:36:53;101572.48;;;29.64;28.68
46834;BME280;32572;51.640;-2.664;2022-07-23T10:39:26;101574.01;;;29.74;28.60
46834;BME280;32572;51.640;-2.664;2022-07-23T10:42:08;101571.19;;;30.23;28.43
46834;BME280;32572;51.640;-2.664;2022-07-23T10:44:39;101565.10;;;29.69;28.81
46834;BME280;32572;51.640;-2.664;2022-07-23T10:47:07;101564.53;;;29.70;28.80
46834;BME280;32572;51.640;-2.664;2022-07-23T10:49:40;101564.98;;;29.56;28.95
46834;BME280;32572;51.640;-2.664;2022-07-23T10:52:19;101563.90;;;30.27;28.58
46834;BME280;32572;51.640;-2.664;2022-07-23T10:54:48;101559.68;;;30.13;28.55
46834;BME280;32572;51.640;-2.664;2022-07-23T10:57:17;101559.42;;;30.09;28.36
46834;BME280;32572;51.640;-2.664;2022-07-23T11:00:23;101557.00;;;31.10;28.15
46834;BME280;32572;51.640;-2.664;2022-07-23T11:02:52;101552.65;;;30.93;27.88
46834;BME280;32572;51.640;-2.664;2022-07-23T11:05:21;101554.62;;;30.61;28.28
46834;BME280;32572;51.640;-2.664;2022-07-23T11:08:25;101552.10;;;30.90;28.07
46834;BME280;32572;51.640;-2.664;2022-07-23T11:10:55;101556.96;;;30.61;28.34
46834;BME280;32572;51.640;-2.664;2022-07-23T11:13:28;101561.31;;;30.12;28.38
